Arlington, Oregon
Current Conditions -  °F | °C
As of 2:53 PM on Saturday 25 Oct 2014 (Local Time) from KHRI Reporting Station
Few Clouds Few Clouds  
Wind Chill: 61°   Ceiling: Unl
Heat Index: 61°   Visibility: 10mi
Dew Point: 50°   Wind: 9mph
Humidity: 67%   Direction: 90°E
Pressure: 29.49"   Gusts: NA
Location:  45.72°N, 120.2°W
Report Text: KHRI 252153Z AUTO 09008KT 10SM FEW120 16/10 A2949 RMK AO2 SLP982 T01610100
Loading
Personal Weather Stations






























Interactive Weather Map
Tropical Storm Tracking
New forecast layout! Learn more

10-Day Weather Forecast

Advertisements
Track Severe Weather on mobile